createdAt,value
2019-01-12T00:00:06.407Z,22.43
2019-01-12T00:02:47.952Z,19.87
2019-01-12T00:05:29.418Z,19.43
2019-01-12T00:08:10.969Z,22.40
2019-01-12T00:10:52.529Z,19.57
2019-01-12T00:13:34.243Z,21.90
2019-01-12T00:16:15.622Z,21.57
2019-01-12T00:18:57.230Z,22.20
2019-01-12T00:21:39.202Z,22.90
2019-01-12T00:24:20.423Z,20.90
2019-01-12T00:27:01.613Z,22.87
2019-01-12T00:29:43.095Z,21.47
2019-01-12T00:32:23.867Z,22.80
2019-01-12T00:35:04.981Z,21.77
2019-01-12T00:37:34.476Z,22.00
2019-01-12T00:40:23.206Z,22.13
2019-01-12T00:43:11.731Z,19.97
2019-01-12T00:45:52.596Z,22.17
2019-01-12T00:48:33.314Z,22.47
2019-01-12T00:51:14.689Z,22.50
2019-01-12T00:53:56.304Z,25.03
2019-01-12T00:56:37.038Z,25.03
2019-01-12T00:59:18.736Z,24.77
2019-01-12T01:02:00.126Z,24.53
2019-01-12T01:04:40.884Z,24.73
2019-01-12T01:07:22.948Z,23.27
2019-01-12T01:10:04.211Z,23.47
2019-01-12T01:12:45.742Z,22.97
2019-01-12T01:15:27.185Z,24.30
2019-01-12T01:18:08.748Z,22.73
2019-01-12T01:20:51.198Z,23.03
2019-01-12T01:23:32.023Z,23.70
2019-01-12T01:26:12.734Z,23.40
2019-01-12T01:28:57.083Z,24.23
2019-01-12T01:31:38.636Z,24.67
2019-01-12T01:34:19.339Z,23.37
2019-01-12T01:37:00.930Z,22.20
2019-01-12T01:39:41.898Z,21.60
2019-01-12T01:42:23.202Z,21.13
2019-01-12T01:45:04.787Z,22.03
2019-01-12T01:47:46.276Z,22.37
2019-01-12T01:50:27.338Z,22.37
2019-01-12T01:55:47.239Z,21.37
2019-01-12T01:58:27.939Z,20.67
2019-01-12T02:01:09.133Z,21.13
2019-01-12T02:03:50.959Z,20.77
2019-01-12T02:06:32.823Z,20.27
2019-01-12T02:09:13.523Z,20.23
2019-01-12T02:11:55.285Z,20.13
2019-01-12T02:14:36.574Z,19.93
2019-01-12T02:17:17.750Z,21.07
2019-01-12T02:19:59.042Z,19.20
2019-01-12T02:22:40.409Z,17.90
2019-01-12T02:25:23.167Z,17.90
2019-01-12T02:28:04.786Z,18.63
2019-01-12T02:30:46.383Z,17.73
2019-01-12T02:33:27.412Z,19.17
2019-01-12T02:36:08.666Z,19.07
2019-01-12T02:38:49.409Z,19.20
2019-01-12T02:41:30.176Z,17.53
2019-01-12T02:46:38.457Z,18.30
2019-01-12T02:49:26.995Z,19.50
2019-01-12T02:52:07.750Z,21.13
2019-01-12T02:54:48.549Z,19.83
2019-01-12T02:57:29.306Z,22.03
2019-01-12T03:00:10.999Z,20.40
2019-01-12T03:02:52.569Z,20.50
2019-01-12T03:05:34.319Z,21.00
2019-01-12T03:08:15.632Z,22.00
2019-01-12T03:10:57.290Z,21.60
2019-01-12T03:13:38.883Z,21.37
2019-01-12T03:16:20.329Z,22.83
2019-01-12T03:19:01.671Z,20.97
2019-01-12T03:21:44.513Z,20.33
2019-01-12T03:24:25.652Z,20.90
2019-01-12T03:27:06.296Z,22.53
2019-01-12T03:29:47.391Z,20.40
2019-01-12T03:32:28.154Z,21.43
2019-01-12T03:35:08.934Z,22.70
2019-01-12T03:37:50.567Z,19.80
2019-01-12T03:40:31.845Z,21.33
2019-01-12T03:43:13.454Z,20.83
2019-01-12T03:45:54.817Z,22.93
2019-01-12T03:48:36.519Z,22.27
2019-01-12T03:51:17.156Z,20.17
2019-01-12T03:53:58.867Z,20.57
2019-01-12T03:56:40.247Z,21.87
2019-01-12T03:59:21.700Z,19.37
2019-01-12T04:02:02.879Z,21.27
2019-01-12T04:04:44.402Z,20.03
2019-01-12T04:07:25.067Z,22.17
2019-01-12T04:09:54.490Z,20.83
2019-01-12T04:12:43.319Z,19.73
2019-01-12T04:15:24.183Z,20.90
2019-01-12T04:18:05.678Z,20.90
2019-01-12T04:20:48.171Z,20.27
2019-01-12T04:23:29.102Z,21.87
2019-01-12T04:26:10.056Z,22.00
2019-01-12T04:28:51.676Z,20.93
2019-01-12T04:31:32.611Z,22.67
2019-01-12T04:34:13.759Z,23.17
2019-01-12T04:36:55.208Z,21.80
2019-01-12T04:39:36.755Z,23.07
2019-01-12T04:42:18.048Z,24.03
2019-01-12T04:44:59.413Z,23.90
2019-01-12T04:47:40.505Z,24.13
2019-01-12T04:50:21.528Z,24.23
2019-01-12T04:53:02.537Z,24.77
2019-01-12T04:55:45.355Z,24.00
2019-01-12T04:58:27.502Z,25.23
2019-01-12T05:01:09.055Z,25.37
2019-01-12T05:03:49.806Z,26.23
2019-01-12T05:06:19.227Z,25.47
2019-01-12T05:09:08.314Z,27.10
2019-01-12T05:11:56.858Z,26.50
2019-01-12T05:14:38.430Z,25.73
2019-01-12T05:17:19.853Z,26.13
2019-01-12T05:20:00.622Z,26.57
2019-01-12T05:22:41.874Z,26.27
2019-01-12T05:25:23.378Z,26.67
2019-01-12T05:28:05.113Z,26.40
2019-01-12T05:30:46.808Z,27.47
2019-01-12T05:33:29.348Z,26.33
2019-01-12T05:36:12.215Z,26.80
2019-01-12T05:38:53.025Z,27.30
2019-01-12T05:41:33.998Z,26.47
2019-01-12T05:44:15.155Z,25.53
2019-01-12T05:46:56.397Z,25.83
2019-01-12T05:49:37.118Z,25.60
2019-01-12T05:52:18.695Z,24.57
2019-01-12T05:55:00.317Z,24.03
2019-01-12T05:57:41.523Z,25.13
2019-01-12T06:00:23.431Z,24.10
2019-01-12T06:03:04.264Z,24.77
2019-01-12T06:05:45.707Z,25.03
2019-01-12T06:08:26.695Z,24.00
2019-01-12T06:11:08.207Z,23.43
2019-01-12T06:13:49.342Z,23.53
2019-01-12T06:16:29.919Z,24.03
2019-01-12T06:19:10.730Z,24.37
2019-01-12T06:21:52.356Z,22.90
2019-01-12T06:24:34.055Z,23.80
2019-01-12T06:27:16.671Z,22.70
2019-01-12T06:29:58.800Z,23.17
2019-01-12T06:32:40.187Z,21.57
2019-01-12T06:35:21.702Z,21.37
2019-01-12T06:38:02.395Z,22.00
2019-01-12T06:40:43.991Z,21.57
2019-01-12T06:43:25.383Z,20.40
2019-01-12T06:46:06.774Z,20.57
2019-01-12T06:48:48.334Z,19.17
2019-01-12T06:51:29.562Z,18.97
2019-01-12T06:54:10.311Z,19.90
2019-01-12T06:56:51.861Z,19.27
2019-01-12T06:59:34.262Z,17.17
2019-01-12T07:02:15.530Z,17.53
2019-01-12T07:04:57.172Z,17.20
2019-01-12T07:07:39.022Z,16.73
2019-01-12T07:10:20.535Z,16.33
2019-01-12T07:13:04.925Z,16.87
2019-01-12T07:15:46.470Z,14.57
2019-01-12T07:18:27.579Z,15.00
2019-01-12T07:21:09.014Z,14.20
2019-01-12T07:23:50.374Z,13.20
2019-01-12T07:26:31.077Z,13.90
2019-01-12T07:29:12.026Z,13.13
2019-01-12T07:31:53.406Z,13.07
2019-01-12T07:34:34.489Z,11.80
2019-01-12T07:37:15.161Z,11.93
2019-01-12T07:39:56.490Z,11.73
2019-01-12T07:42:38.142Z,11.50
2019-01-12T07:45:19.487Z,10.90
2019-01-12T07:48:01.069Z,11.63
2019-01-12T07:50:42.907Z,12.17
2019-01-12T07:53:24.491Z,12.20
2019-01-12T07:56:05.873Z,11.13
2019-01-12T07:58:47.392Z,10.70
2019-01-12T08:01:28.130Z,10.43
2019-01-12T08:04:09.650Z,10.10
2019-01-12T08:06:50.828Z,9.80
2019-01-12T08:09:32.462Z,10.07
2019-01-12T08:12:13.911Z,9.77
2019-01-12T08:17:37.779Z,9.30
2019-01-12T08:20:19.090Z,9.73
2019-01-12T08:23:00.766Z,9.57
2019-01-12T08:25:42.340Z,9.20
2019-01-12T08:28:23.967Z,9.70
2019-01-12T08:30:53.421Z,8.70
2019-01-12T08:33:42.506Z,8.37
2019-01-12T08:36:30.989Z,9.20
2019-01-12T08:39:12.285Z,8.03
2019-01-12T08:41:52.989Z,8.00
2019-01-12T08:44:34.594Z,8.20
2019-01-12T08:47:15.380Z,7.70
2019-01-12T08:49:56.193Z,8.47
2019-01-12T08:52:37.707Z,8.93
2019-01-12T08:58:01.466Z,7.47
2019-01-12T09:00:42.898Z,7.30
2019-01-12T09:03:24.362Z,7.83
2019-01-12T09:06:06.995Z,8.17
2019-01-12T09:08:48.556Z,9.23
2019-01-12T09:11:29.928Z,7.83
2019-01-12T09:14:11.540Z,7.40
2019-01-12T09:16:54.863Z,7.30
2019-01-12T09:19:35.864Z,6.70
2019-01-12T09:22:16.574Z,6.43
2019-01-12T09:24:58.025Z,7.17
2019-01-12T09:27:39.184Z,7.17
2019-01-12T09:30:20.485Z,6.40
2019-01-12T09:33:01.851Z,6.33
2019-01-12T09:35:43.494Z,6.40
2019-01-12T09:38:24.385Z,6.27
2019-01-12T09:41:05.676Z,6.37
2019-01-12T09:43:47.571Z,6.13
2019-01-12T09:46:28.577Z,6.20
2019-01-12T09:49:09.630Z,6.30
2019-01-12T09:51:51.084Z,6.00
2019-01-12T09:54:31.857Z,5.73
2019-01-12T09:57:12.464Z,6.47
2019-01-12T10:02:39.987Z,7.13
2019-01-12T10:05:21.861Z,7.07
2019-01-12T10:08:02.968Z,6.30
2019-01-12T10:10:43.760Z,6.57
2019-01-12T10:13:25.459Z,8.13
2019-01-12T10:16:06.975Z,6.37
2019-01-12T10:18:38.953Z,6.03
2019-01-12T10:24:22.035Z,5.77
2019-01-12T10:27:02.746Z,7.83
2019-01-12T10:29:43.376Z,5.87
2019-01-12T10:32:24.973Z,5.60
2019-01-12T10:35:06.124Z,6.00
2019-01-12T10:40:30.464Z,6.87
2019-01-12T10:43:11.218Z,5.60
2019-01-12T10:45:52.837Z,6.10
2019-01-12T10:48:35.008Z,6.10
2019-01-12T10:51:16.691Z,6.30
2019-01-12T10:53:58.097Z,6.67
2019-01-12T10:56:39.398Z,7.07
2019-01-12T10:59:21.058Z,7.37
2019-01-12T11:02:02.239Z,7.00
2019-01-12T11:04:31.732Z,6.77
2019-01-12T11:07:20.713Z,6.57
2019-01-12T11:10:04.185Z,7.13
2019-01-12T11:12:44.497Z,7.87
2019-01-12T11:15:25.172Z,7.77
2019-01-12T11:18:06.886Z,7.87
2019-01-12T11:20:47.759Z,7.57
2019-01-12T11:23:29.592Z,9.20
2019-01-12T11:26:11.765Z,9.63
2019-01-12T11:28:53.213Z,7.47
2019-01-12T11:31:35.290Z,8.33
2019-01-12T11:34:16.304Z,8.20
2019-01-12T11:36:57.802Z,7.47
2019-01-12T11:39:39.293Z,8.20
2019-01-12T11:42:20.327Z,8.23
2019-01-12T11:45:02.248Z,7.10
2019-01-12T11:50:29.969Z,6.73
2019-01-12T11:53:11.272Z,7.17
2019-01-12T11:55:52.878Z,6.80
2019-01-12T12:01:15.931Z,6.70
2019-01-12T12:03:57.455Z,7.17
2019-01-12T12:06:41.757Z,6.43
2019-01-12T12:09:23.218Z,5.90
2019-01-12T12:12:05.704Z,6.27
2019-01-12T12:14:47.227Z,6.33
2019-01-12T12:17:28.529Z,5.43
2019-01-12T12:20:09.866Z,6.47
2019-01-12T12:22:49.651Z,5.93
2019-01-12T12:25:30.637Z,6.17
2019-01-12T12:28:11.984Z,5.30
2019-01-12T12:30:53.849Z,5.47
2019-01-12T12:33:35.403Z,5.37
2019-01-12T12:36:04.974Z,5.50
2019-01-12T12:38:53.472Z,5.50
2019-01-12T12:41:42.032Z,5.67
2019-01-12T12:44:11.495Z,5.50
2019-01-12T12:47:00.103Z,6.70
2019-01-12T12:49:40.829Z,6.00
2019-01-12T12:52:22.402Z,5.80
2019-01-12T12:55:06.875Z,6.37
2019-01-12T12:57:48.802Z,6.57
2019-01-12T13:00:30.319Z,6.77
2019-01-12T13:05:50.559Z,7.43
2019-01-12T13:08:32.079Z,7.43
2019-01-12T13:11:12.955Z,7.17
2019-01-12T13:13:54.090Z,7.40
2019-01-12T13:16:35.580Z,7.10
2019-01-12T13:22:04.544Z,6.77
2019-01-12T13:24:46.180Z,6.30
2019-01-12T13:27:27.954Z,6.93
2019-01-12T13:30:09.766Z,6.67
2019-01-12T13:32:52.789Z,7.37
2019-01-12T13:35:35.995Z,7.10
2019-01-12T13:38:19.540Z,8.30
2019-01-12T13:41:03.691Z,8.43
2019-01-12T13:43:44.473Z,8.60
2019-01-12T13:49:10.148Z,10.47
2019-01-12T13:54:35.999Z,10.13
2019-01-12T13:57:17.354Z,9.63
2019-01-12T13:59:58.702Z,10.20
2019-01-12T14:02:42.578Z,9.63
2019-01-12T14:08:10.220Z,9.40
2019-01-12T14:10:52.058Z,8.00
2019-01-12T14:13:33.962Z,9.20
2019-01-12T14:16:15.592Z,8.83
2019-01-12T14:18:57.106Z,9.47
2019-01-12T14:21:38.798Z,9.40
2019-01-12T14:24:19.978Z,8.80
2019-01-12T14:27:01.416Z,8.90
2019-01-12T14:29:42.151Z,8.50
2019-01-12T14:32:23.149Z,8.53
2019-01-12T14:35:04.804Z,8.13
2019-01-12T14:40:30.678Z,7.87
2019-01-12T14:43:13.407Z,7.57
2019-01-12T14:45:43.122Z,7.23
2019-01-12T14:48:31.689Z,7.80
2019-01-12T14:51:16.069Z,8.10
2019-01-12T14:53:57.455Z,7.40
2019-01-12T14:56:39.413Z,7.80
2019-01-12T14:59:20.598Z,8.50
2019-01-12T15:02:04.245Z,7.80
2019-01-12T15:04:45.985Z,7.73
2019-01-12T15:07:27.461Z,9.20
2019-01-12T15:10:08.727Z,8.63
2019-01-12T15:12:50.590Z,8.30
2019-01-12T15:15:32.483Z,7.90
2019-01-12T15:18:14.181Z,7.67
2019-01-12T15:20:55.427Z,8.57
2019-01-12T15:23:36.879Z,8.03
2019-01-12T15:26:18.967Z,7.63
2019-01-12T15:29:00.520Z,7.63
2019-01-12T15:31:42.281Z,8.00
2019-01-12T15:34:23.476Z,7.47
2019-01-12T15:37:04.562Z,7.63
2019-01-12T15:42:30.502Z,8.60
2019-01-12T15:45:12.237Z,8.23
2019-01-12T15:47:56.550Z,7.63
2019-01-12T15:50:27.232Z,7.77
2019-01-12T15:53:15.753Z,7.70
2019-01-12T15:56:04.426Z,8.10
2019-01-12T15:58:46.829Z,8.37
2019-01-12T16:01:26.539Z,7.53
2019-01-12T16:04:07.778Z,7.63
2019-01-12T16:06:49.341Z,7.80
2019-01-12T16:09:30.936Z,8.20
2019-01-12T16:12:12.474Z,8.83
2019-01-12T16:14:53.336Z,8.03
2019-01-12T16:17:34.335Z,7.83
2019-01-12T16:20:15.435Z,7.73
2019-01-12T16:22:56.127Z,8.33
2019-01-12T16:25:38.946Z,8.90
2019-01-12T16:28:23.405Z,8.23
2019-01-12T16:31:02.813Z,8.47
2019-01-12T16:33:43.675Z,8.83
2019-01-12T16:36:24.535Z,8.23
2019-01-12T16:39:08.633Z,8.60
2019-01-12T16:41:50.685Z,9.30
2019-01-12T16:44:31.640Z,10.03
2019-01-12T16:47:14.132Z,9.47
2019-01-12T16:49:54.791Z,15.27
2019-01-12T16:52:36.418Z,16.70
2019-01-12T16:55:18.931Z,17.70
2019-01-12T16:58:00.612Z,13.60
2019-01-12T17:00:51.332Z,27.47
2019-01-12T17:03:40.212Z,18.57
2019-01-12T17:06:22.585Z,10.03
2019-01-12T17:09:04.761Z,8.57
2019-01-12T17:11:46.131Z,12.40
2019-01-12T17:14:26.998Z,11.37
2019-01-12T17:17:08.433Z,9.87
2019-01-12T17:19:49.270Z,9.77
2019-01-12T17:22:30.235Z,10.97
2019-01-12T17:25:11.332Z,13.77
2019-01-12T17:27:52.035Z,10.43
2019-01-12T17:30:34.338Z,9.90
2019-01-12T17:33:15.898Z,11.23
2019-01-12T17:35:56.826Z,11.80
2019-01-12T17:38:38.630Z,12.40
2019-01-12T17:41:20.707Z,10.53
2019-01-12T17:44:01.810Z,12.13
2019-01-12T17:46:43.063Z,10.20
2019-01-12T17:52:02.843Z,10.43
2019-01-12T17:54:43.677Z,10.27
2019-01-12T17:57:24.618Z,11.87
2019-01-12T18:02:49.719Z,11.37
2019-01-12T18:05:31.176Z,14.13
2019-01-12T18:08:14.558Z,12.70
2019-01-12T18:10:55.318Z,10.50
2019-01-12T18:13:36.621Z,9.77
2019-01-12T18:16:25.244Z,9.17
2019-01-12T18:19:13.851Z,8.67
2019-01-12T18:21:55.542Z,8.53
2019-01-12T18:24:36.245Z,9.37
2019-01-12T18:30:08.019Z,8.50
2019-01-12T18:32:49.747Z,8.07
2019-01-12T18:35:31.807Z,6.53
2019-01-12T18:38:12.839Z,7.53
2019-01-12T18:40:55.241Z,6.67
2019-01-12T18:43:36.011Z,6.33
2019-01-12T18:49:03.507Z,6.23
2019-01-12T18:51:44.481Z,6.10
2019-01-12T18:54:25.790Z,6.37
2019-01-12T18:57:06.708Z,9.10
2019-01-12T18:59:48.404Z,6.97
2019-01-12T19:02:29.562Z,5.87
2019-01-12T19:05:10.321Z,6.83
2019-01-12T19:07:51.818Z,6.10
2019-01-12T19:10:33.726Z,5.73
2019-01-12T19:13:15.229Z,5.43
2019-01-12T19:15:56.785Z,5.30
2019-01-12T19:21:19.759Z,4.47
2019-01-12T19:24:00.729Z,6.00
2019-01-12T19:26:45.280Z,5.70
2019-01-12T19:29:26.269Z,5.87
2019-01-12T19:32:07.191Z,4.57
2019-01-12T19:34:48.173Z,4.50
2019-01-12T19:37:28.919Z,4.87
2019-01-12T19:42:52.483Z,5.23
2019-01-12T19:45:41.081Z,4.67
2019-01-12T19:48:22.166Z,5.00
2019-01-12T19:51:02.772Z,4.57
2019-01-12T19:53:43.391Z,4.57
2019-01-12T19:56:24.814Z,4.97
2019-01-12T19:59:13.406Z,4.47
2019-01-12T20:01:48.954Z,4.63
2019-01-12T20:04:30.531Z,9.43
2019-01-12T20:07:11.793Z,13.37
2019-01-12T20:09:53.191Z,14.27
2019-01-12T20:12:34.651Z,12.80
2019-01-12T20:15:15.396Z,7.63
2019-01-12T20:17:57.646Z,5.90
2019-01-12T20:20:39.246Z,5.13
2019-01-12T20:23:21.220Z,4.17
2019-01-12T20:26:02.394Z,3.57
2019-01-12T20:28:44.135Z,4.10
2019-01-12T20:31:26.581Z,3.70
2019-01-12T20:34:07.368Z,3.90
2019-01-12T20:39:34.951Z,4.13
2019-01-12T20:42:16.454Z,3.60
2019-01-12T20:44:57.139Z,3.77
2019-01-12T20:47:38.435Z,4.43
2019-01-12T20:50:19.929Z,4.10
2019-01-12T20:53:01.315Z,4.03
2019-01-12T20:55:42.797Z,3.70
2019-01-12T20:58:24.150Z,5.60
2019-01-12T21:01:31.994Z,3.77
2019-01-12T21:04:39.540Z,15.13
2019-01-12T21:07:20.452Z,3.20
2019-01-12T21:10:01.408Z,3.40
2019-01-12T21:12:42.271Z,3.70
2019-01-12T21:15:23.604Z,2.97
2019-01-12T21:18:04.410Z,2.83
2019-01-12T21:20:46.381Z,2.67
2019-01-12T21:23:29.989Z,2.93
2019-01-12T21:26:10.855Z,3.27
2019-01-12T21:28:52.267Z,3.20
2019-01-12T21:31:33.777Z,3.03
2019-01-12T21:34:15.040Z,3.50
2019-01-12T21:36:56.426Z,3.27
2019-01-12T21:39:37.232Z,3.47
2019-01-12T21:42:18.782Z,3.20
2019-01-12T21:45:00.521Z,3.23
2019-01-12T21:47:42.112Z,3.17
2019-01-12T21:50:23.626Z,2.63
2019-01-12T21:53:05.119Z,3.80
2019-01-12T21:55:46.001Z,4.10
2019-01-12T21:58:27.594Z,4.23
2019-01-12T22:01:09.527Z,4.63
2019-01-12T22:03:50.524Z,5.47
2019-01-12T22:06:31.519Z,5.17
2019-01-12T22:09:13.248Z,5.47
2019-01-12T22:11:56.264Z,4.97
2019-01-12T22:14:37.827Z,5.00
2019-01-12T22:17:19.366Z,4.90
2019-01-12T22:19:48.798Z,5.30
2019-01-12T22:22:37.216Z,5.40
2019-01-12T22:25:18.380Z,4.97
2019-01-12T22:28:00.529Z,5.10
2019-01-12T22:30:41.315Z,5.47
2019-01-12T22:33:22.960Z,4.47
2019-01-12T22:36:04.463Z,4.47
2019-01-12T22:38:45.105Z,4.90
2019-01-12T22:41:25.743Z,7.03
2019-01-12T22:44:10.836Z,5.63
2019-01-12T22:46:51.652Z,6.37
2019-01-12T22:49:33.013Z,5.77
2019-01-12T22:52:13.717Z,5.80
2019-01-12T22:54:54.593Z,6.20
2019-01-12T22:57:36.420Z,6.63
2019-01-12T23:00:17.559Z,5.90
2019-01-12T23:05:42.213Z,7.03
2019-01-12T23:08:30.726Z,8.20
2019-01-12T23:11:11.819Z,8.90
2019-01-12T23:13:52.459Z,12.50
2019-01-12T23:16:33.299Z,13.53
2019-01-12T23:19:14.681Z,15.30
2019-01-12T23:21:56.367Z,14.50
2019-01-12T23:24:37.805Z,20.23
2019-01-12T23:27:19.563Z,20.43
2019-01-12T23:30:04.707Z,22.03
2019-01-12T23:32:42.722Z,19.60
2019-01-12T23:35:23.770Z,19.97
2019-01-12T23:38:05.286Z,18.10
2019-01-12T23:40:46.452Z,19.87
2019-01-12T23:43:27.143Z,20.63
2019-01-12T23:46:08.819Z,19.87
2019-01-12T23:48:50.792Z,20.67
2019-01-12T23:51:32.298Z,21.27
2019-01-12T23:54:12.946Z,19.67
2019-01-12T23:59:38.965Z,21.90
